Webcam Flughafen St.Gallen-Altenrhein

Live-Bilder und Zeitraffer LSZR / ACH.

 

Live aus Altenrhein
LIVE
LSZR 152050Z AUTO 26008KT 220V290 9999 -RA BKN050 SCT065 09/08 Q1010
Zeitraffer heute
2021-05-15 00:14:43
LSZR 142150Z AUTO 11005KT 070V160 9999 FEW050 OVC070 11/07 Q1013